createdAt,value
2022-10-17T00:00:51.524Z,20.92
2022-10-17T00:03:18.930Z,16.58
2022-10-17T00:05:47.865Z,21.60
2022-10-17T00:08:17.005Z,19.08
2022-10-17T00:10:44.494Z,21.77
2022-10-17T00:13:12.445Z,16.27
2022-10-17T00:15:45.047Z,18.73
2022-10-17T00:18:12.604Z,21.48
2022-10-17T00:20:39.898Z,26.70
2022-10-17T00:23:07.137Z,22.42
2022-10-17T00:25:34.302Z,23.42
2022-10-17T00:28:01.327Z,20.75
2022-10-17T00:30:28.483Z,20.83
2022-10-17T00:32:55.705Z,16.73
2022-10-17T00:35:23.095Z,19.33
2022-10-17T00:37:50.267Z,19.58
2022-10-17T00:40:17.714Z,18.20
2022-10-17T00:42:47.143Z,17.43
2022-10-17T00:45:30.559Z,20.27
2022-10-17T00:48:21.179Z,22.17
2022-10-17T00:50:51.288Z,22.02
2022-10-17T00:53:19.023Z,23.55
2022-10-17T00:55:51.167Z,18.80
2022-10-17T00:58:19.108Z,21.27
2022-10-17T01:00:48.730Z,22.92
2022-10-17T01:03:16.656Z,19.53
2022-10-17T01:05:44.094Z,24.50
2022-10-17T01:08:12.616Z,20.15
2022-10-17T01:11:10.665Z,17.77
2022-10-17T01:14:13.462Z,21.55
2022-10-17T01:16:40.888Z,22.50
2022-10-17T01:19:27.883Z,22.77
2022-10-17T01:22:18.520Z,22.80
2022-10-17T01:25:22.208Z,19.38
2022-10-17T01:27:57.162Z,21.58
2022-10-17T01:30:48.956Z,25.10
2022-10-17T01:33:54.913Z,23.27
2022-10-17T01:36:37.213Z,20.58
2022-10-17T01:39:15.396Z,22.88
2022-10-17T01:42:03.734Z,20.33
2022-10-17T01:44:41.632Z,20.40
2022-10-17T01:47:13.965Z,20.73
2022-10-17T01:49:44.291Z,17.67
2022-10-17T01:52:21.217Z,20.40
2022-10-17T01:54:56.314Z,22.52
2022-10-17T01:57:37.759Z,27.20
2022-10-17T02:00:09.342Z,24.80
2022-10-17T02:02:42.748Z,20.70
2022-10-17T02:05:11.078Z,28.23
2022-10-17T02:07:38.305Z,25.98
2022-10-17T02:10:12.738Z,25.38
2022-10-17T02:13:01.237Z,29.15
2022-10-17T02:15:40.804Z,26.25
2022-10-17T02:18:15.272Z,29.40
2022-10-17T02:21:01.091Z,26.42
2022-10-17T02:23:35.064Z,21.20
2022-10-17T02:26:14.434Z,18.40
2022-10-17T02:29:05.314Z,20.83
2022-10-17T02:31:39.847Z,24.13
2022-10-17T02:34:20.133Z,23.25
2022-10-17T02:36:54.256Z,23.08
2022-10-17T02:39:23.862Z,25.40
2022-10-17T02:41:53.039Z,19.98
2022-10-17T02:44:22.194Z,19.15
2022-10-17T02:46:59.945Z,18.92
2022-10-17T02:49:31.985Z,18.95
2022-10-17T02:52:14.909Z,22.45
2022-10-17T02:54:48.123Z,19.73
2022-10-17T02:57:31.362Z,20.52
2022-10-17T03:00:01.216Z,20.75
2022-10-17T03:02:29.513Z,23.48
2022-10-17T03:04:56.994Z,24.33
2022-10-17T03:07:24.100Z,20.23
2022-10-17T03:09:51.243Z,21.38
2022-10-17T03:12:18.424Z,23.20
2022-10-17T03:14:46.112Z,27.25
2022-10-17T03:17:13.237Z,26.45
2022-10-17T03:19:41.314Z,22.27
2022-10-17T03:22:09.465Z,21.92
2022-10-17T03:24:37.485Z,23.75
2022-10-17T03:27:04.998Z,22.38
2022-10-17T03:29:32.213Z,24.27
2022-10-17T03:31:59.423Z,21.98
2022-10-17T03:34:26.577Z,20.02
2022-10-17T03:36:54.799Z,21.02
2022-10-17T03:39:22.398Z,21.58
2022-10-17T03:41:50.014Z,21.65
2022-10-17T03:44:17.116Z,18.42
2022-10-17T03:46:44.628Z,20.10
2022-10-17T03:49:11.973Z,18.90
2022-10-17T03:51:40.036Z,21.25
2022-10-17T03:54:11.884Z,15.52
2022-10-17T03:56:40.024Z,18.30
2022-10-17T03:59:16.000Z,24.95
2022-10-17T04:01:49.888Z,20.67
2022-10-17T04:04:17.517Z,23.65
2022-10-17T04:06:45.051Z,22.48
2022-10-17T04:09:12.396Z,21.45
2022-10-17T04:11:50.571Z,28.40
2022-10-17T04:14:17.847Z,31.02
2022-10-17T04:16:45.023Z,27.88
2022-10-17T04:19:16.748Z,22.52
2022-10-17T04:21:46.836Z,25.65
2022-10-17T04:24:15.661Z,27.65
2022-10-17T04:26:43.161Z,24.88
2022-10-17T04:29:11.323Z,25.15
2022-10-17T04:31:39.850Z,24.75
2022-10-17T04:34:25.440Z,27.13
2022-10-17T04:36:52.593Z,26.10
2022-10-17T04:39:20.320Z,24.52
2022-10-17T04:41:48.198Z,25.98
2022-10-17T04:44:15.732Z,19.15
2022-10-17T04:46:48.973Z,22.55
2022-10-17T04:49:16.390Z,19.60
2022-10-17T04:51:46.892Z,23.50
2022-10-17T04:54:19.916Z,22.88
2022-10-17T04:56:52.055Z,21.10
2022-10-17T04:59:19.623Z,27.38
2022-10-17T05:01:50.395Z,24.58
2022-10-17T05:04:21.101Z,19.27
2022-10-17T05:06:51.353Z,27.00
2022-10-17T05:09:36.803Z,21.80
2022-10-17T05:12:06.758Z,23.38
2022-10-17T05:14:38.156Z,26.98
2022-10-17T05:17:05.681Z,22.15
2022-10-17T05:19:32.954Z,24.85
2022-10-17T05:22:00.506Z,22.08
2022-10-17T05:24:27.563Z,24.20
2022-10-17T05:26:54.817Z,25.30
2022-10-17T05:29:24.011Z,32.13
2022-10-17T05:31:56.702Z,36.20
2022-10-17T05:34:25.295Z,39.80
2022-10-17T05:36:52.476Z,42.33
2022-10-17T05:39:23.575Z,35.60
2022-10-17T05:41:52.896Z,31.65
2022-10-17T05:44:20.603Z,25.13
2022-10-17T05:46:53.826Z,40.10
2022-10-17T05:49:32.551Z,47.40
2022-10-17T05:52:07.785Z,46.80
2022-10-17T05:54:45.885Z,43.13
2022-10-17T05:57:13.275Z,48.95
2022-10-17T05:59:41.634Z,57.15
2022-10-17T06:02:13.787Z,47.60
2022-10-17T06:04:45.834Z,53.47
2022-10-17T06:07:14.486Z,49.45
2022-10-17T06:12:17.081Z,44.50
2022-10-17T06:14:45.448Z,45.72
2022-10-17T06:17:16.252Z,45.72
2022-10-17T06:19:48.010Z,39.83
2022-10-17T06:22:16.116Z,42.10
2022-10-17T06:24:43.687Z,45.70
2022-10-17T06:27:12.255Z,47.30
2022-10-17T06:29:41.355Z,50.28
2022-10-17T06:32:11.299Z,47.88
2022-10-17T06:34:42.482Z,44.28
2022-10-17T06:37:10.602Z,39.83
2022-10-17T06:39:39.879Z,42.45
2022-10-17T06:42:20.679Z,47.55
2022-10-17T06:45:04.175Z,46.72
2022-10-17T06:47:54.277Z,48.50
2022-10-17T06:50:43.106Z,39.80
2022-10-17T06:53:17.131Z,45.75
2022-10-17T06:56:13.562Z,42.17
2022-10-17T07:01:34.907Z,42.25
2022-10-17T07:04:03.866Z,43.33
2022-10-17T07:06:32.263Z,43.25
2022-10-17T07:09:07.108Z,45.88
2022-10-17T07:11:37.366Z,41.78
2022-10-17T07:14:04.566Z,48.95
2022-10-17T07:16:31.667Z,43.67
2022-10-17T07:19:08.535Z,40.55
2022-10-17T07:21:39.261Z,41.90
2022-10-17T07:24:08.913Z,39.05
2022-10-17T07:26:36.424Z,41.38
2022-10-17T07:29:06.623Z,43.35
2022-10-17T07:31:38.232Z,41.55
2022-10-17T07:34:05.617Z,39.38
2022-10-17T07:36:33.155Z,44.15
2022-10-17T07:39:03.301Z,42.55
2022-10-17T07:41:31.689Z,44.63
2022-10-17T07:43:59.397Z,40.95
2022-10-17T07:46:32.535Z,39.30
2022-10-17T07:49:00.216Z,40.30
2022-10-17T07:51:28.176Z,37.40
2022-10-17T07:53:55.268Z,40.10
2022-10-17T07:56:24.954Z,38.70
2022-10-17T07:58:53.442Z,40.72
2022-10-17T08:01:20.731Z,37.72
2022-10-17T08:03:51.034Z,37.38
2022-10-17T08:06:18.803Z,39.55
2022-10-17T08:08:46.604Z,40.50
2022-10-17T08:11:15.025Z,36.90
2022-10-17T08:13:42.641Z,40.90
2022-10-17T08:16:12.805Z,41.00
2022-10-17T08:18:42.090Z,41.80
2022-10-17T08:21:10.045Z,36.92
2022-10-17T08:23:38.073Z,39.45
2022-10-17T08:26:10.841Z,36.80
2022-10-17T08:28:40.278Z,37.45
2022-10-17T08:31:13.470Z,36.28
2022-10-17T08:33:42.192Z,39.97
2022-10-17T08:36:10.625Z,42.03
2022-10-17T08:38:43.176Z,37.90
2022-10-17T08:41:28.894Z,42.17
2022-10-17T08:44:05.604Z,38.95
2022-10-17T08:46:36.520Z,41.03
2022-10-17T08:49:12.188Z,39.83
2022-10-17T08:51:48.283Z,39.35
2022-10-17T08:54:41.099Z,39.50
2022-10-17T08:57:18.787Z,38.42
2022-10-17T08:59:50.754Z,35.88
2022-10-17T09:02:48.615Z,38.30
2022-10-17T09:05:26.477Z,37.13
2022-10-17T09:08:20.285Z,37.95
2022-10-17T09:10:58.875Z,38.63
2022-10-17T09:13:59.806Z,38.55
2022-10-17T09:16:55.187Z,42.00
2022-10-17T09:19:39.493Z,36.88
2022-10-17T09:22:09.417Z,38.15
2022-10-17T09:24:55.887Z,36.67
2022-10-17T09:27:42.751Z,38.53
2022-10-17T09:30:44.800Z,37.15
2022-10-17T09:33:28.197Z,34.85
2022-10-17T09:36:30.056Z,35.22
2022-10-17T09:39:00.014Z,35.35
2022-10-17T09:41:46.889Z,32.35
2022-10-17T09:44:22.125Z,34.92
2022-10-17T09:46:55.403Z,33.72
2022-10-17T09:49:34.889Z,31.40
2022-10-17T09:52:05.687Z,31.53
2022-10-17T09:54:55.334Z,36.92
2022-10-17T09:57:23.028Z,28.77
2022-10-17T09:59:56.172Z,35.78
2022-10-17T10:02:25.859Z,35.05
2022-10-17T10:05:06.379Z,34.50
2022-10-17T10:07:39.136Z,33.72
2022-10-17T10:10:23.136Z,32.70
2022-10-17T10:13:05.093Z,33.13
2022-10-17T10:15:39.079Z,31.98
2022-10-17T10:18:36.513Z,31.15
2022-10-17T10:21:20.457Z,32.85
2022-10-17T10:24:00.048Z,30.85
2022-10-17T10:26:32.925Z,30.87
2022-10-17T10:29:07.529Z,32.28
2022-10-17T10:31:40.458Z,34.50
2022-10-17T10:34:22.062Z,30.05
2022-10-17T10:36:55.653Z,31.90
2022-10-17T10:39:32.283Z,27.15
2022-10-17T10:42:02.448Z,28.83
2022-10-17T10:44:32.279Z,29.55
2022-10-17T10:47:24.444Z,33.20
2022-10-17T10:50:06.498Z,29.65
2022-10-17T10:52:43.491Z,32.42
2022-10-17T10:55:27.643Z,29.02
2022-10-17T10:58:01.432Z,27.75
2022-10-17T11:00:30.932Z,28.52
2022-10-17T11:03:19.869Z,29.27
2022-10-17T11:05:53.831Z,28.58
2022-10-17T11:08:26.599Z,26.52
2022-10-17T11:11:30.720Z,25.80
2022-10-17T11:14:08.780Z,25.75
2022-10-17T11:16:44.366Z,23.35
2022-10-17T11:19:20.679Z,26.98
2022-10-17T11:22:03.973Z,25.33
2022-10-17T11:24:48.194Z,24.73
2022-10-17T11:27:15.806Z,23.85
2022-10-17T11:29:46.288Z,24.00
2022-10-17T11:32:19.942Z,22.85
2022-10-17T11:34:51.673Z,22.80
2022-10-17T11:37:23.558Z,23.85
2022-10-17T11:40:19.127Z,22.60
2022-10-17T11:42:59.682Z,22.17
2022-10-17T11:45:30.143Z,20.92
2022-10-17T11:48:06.930Z,22.13
2022-10-17T11:53:43.583Z,20.83
2022-10-17T11:56:13.126Z,20.40
2022-10-17T11:58:47.350Z,20.77
2022-10-17T12:01:41.324Z,22.05
2022-10-17T12:04:49.553Z,23.73
2022-10-17T12:07:51.324Z,26.67
2022-10-17T12:10:29.795Z,20.13
2022-10-17T12:12:57.183Z,20.45
2022-10-17T12:15:24.525Z,20.75
2022-10-17T12:18:17.437Z,25.13
2022-10-17T12:20:57.563Z,23.08
2022-10-17T12:23:29.509Z,24.25
2022-10-17T12:26:04.708Z,24.10
2022-10-17T12:28:41.361Z,24.73
2022-10-17T12:31:29.719Z,21.42
2022-10-17T12:34:03.564Z,25.23
2022-10-17T12:36:30.697Z,19.88
2022-10-17T12:39:04.264Z,21.65
2022-10-17T12:41:40.809Z,20.52
2022-10-17T12:44:14.137Z,21.92
2022-10-17T12:46:57.551Z,21.30
2022-10-17T12:49:36.943Z,20.98
2022-10-17T12:52:26.534Z,22.60
2022-10-17T12:55:14.875Z,23.77
2022-10-17T12:57:48.254Z,20.15
2022-10-17T13:00:32.995Z,19.67
2022-10-17T13:03:11.545Z,18.50
2022-10-17T13:05:42.044Z,18.80
2022-10-17T13:08:18.350Z,23.10
2022-10-17T13:10:51.562Z,19.02
2022-10-17T13:13:40.886Z,19.08
2022-10-17T13:16:08.365Z,21.05
2022-10-17T13:18:35.997Z,20.88
2022-10-17T13:21:14.573Z,18.77
2022-10-17T13:23:42.280Z,22.52
2022-10-17T13:26:18.783Z,17.58
2022-10-17T13:28:47.588Z,20.58
2022-10-17T13:31:38.684Z,15.38
2022-10-17T13:34:16.722Z,16.65
2022-10-17T13:36:48.828Z,15.93
2022-10-17T13:39:32.106Z,14.20
2022-10-17T13:42:07.563Z,16.52
2022-10-17T13:44:37.786Z,15.95
2022-10-17T13:47:22.214Z,19.58
2022-10-17T13:49:52.949Z,18.70
2022-10-17T13:52:26.083Z,23.35
2022-10-17T13:54:54.397Z,19.52
2022-10-17T13:57:29.699Z,20.58
2022-10-17T14:00:04.404Z,17.52
2022-10-17T14:02:42.320Z,22.70
2022-10-17T14:05:17.782Z,18.85
2022-10-17T14:08:12.388Z,18.45
2022-10-17T14:10:43.896Z,17.40
2022-10-17T14:13:26.883Z,17.57
2022-10-17T14:16:01.894Z,19.58
2022-10-17T14:18:36.487Z,18.13
2022-10-17T14:24:12.683Z,16.30
2022-10-17T14:26:59.082Z,18.30
2022-10-17T14:29:53.105Z,15.80
2022-10-17T14:32:21.651Z,18.63
2022-10-17T14:34:58.367Z,15.05
2022-10-17T14:37:46.684Z,15.32
2022-10-17T14:40:20.013Z,15.48
2022-10-17T14:42:48.941Z,17.73
2022-10-17T14:45:27.093Z,19.65
2022-10-17T14:47:57.007Z,17.88
2022-10-17T14:50:29.654Z,15.68
2022-10-17T14:53:06.764Z,14.75
2022-10-17T14:55:36.133Z,18.05
2022-10-17T14:58:23.052Z,19.70
2022-10-17T15:00:50.367Z,19.85
2022-10-17T15:03:19.539Z,16.98
2022-10-17T15:05:53.483Z,14.88
2022-10-17T15:08:23.521Z,15.30
2022-10-17T15:10:51.594Z,15.40
2022-10-17T15:13:28.236Z,16.20
2022-10-17T15:15:56.767Z,19.00
2022-10-17T15:18:24.048Z,16.58
2022-10-17T15:20:59.548Z,18.15
2022-10-17T15:23:32.478Z,16.90
2022-10-17T15:25:59.673Z,17.48
2022-10-17T15:28:27.565Z,16.90
2022-10-17T15:30:54.851Z,15.50
2022-10-17T15:33:22.468Z,16.67
2022-10-17T15:35:49.874Z,20.83
2022-10-17T15:38:18.603Z,16.52
2022-10-17T15:40:49.103Z,16.17
2022-10-17T15:43:19.778Z,21.98
2022-10-17T15:45:47.751Z,17.65
2022-10-17T15:48:26.719Z,17.80
2022-10-17T15:50:53.844Z,22.10
2022-10-17T15:53:21.103Z,20.75
2022-10-17T15:55:51.244Z,18.02
2022-10-17T15:58:19.916Z,18.95
2022-10-17T16:00:48.047Z,18.50
2022-10-17T16:03:15.439Z,20.05
2022-10-17T16:05:42.733Z,18.23
2022-10-17T16:08:09.865Z,21.42
2022-10-17T16:10:40.028Z,23.25
2022-10-17T16:13:07.225Z,23.60
2022-10-17T16:15:34.443Z,22.88
2022-10-17T16:18:04.283Z,21.17
2022-10-17T16:20:33.854Z,19.30
2022-10-17T16:23:03.341Z,22.05
2022-10-17T16:25:32.433Z,20.97
2022-10-17T16:28:01.172Z,19.83
2022-10-17T16:30:30.885Z,20.65
2022-10-17T16:32:58.208Z,19.20
2022-10-17T16:35:31.930Z,20.27
2022-10-17T16:38:02.286Z,20.23
2022-10-17T16:40:29.409Z,19.58
2022-10-17T16:42:56.697Z,19.98
2022-10-17T16:45:23.913Z,22.52
2022-10-17T16:47:51.258Z,18.85
2022-10-17T16:50:18.914Z,19.45
2022-10-17T16:52:46.131Z,19.05
2022-10-17T16:55:13.606Z,19.88
2022-10-17T17:00:17.156Z,23.40
2022-10-17T17:02:47.303Z,19.83
2022-10-17T17:05:14.567Z,22.35
2022-10-17T17:07:41.682Z,19.45
2022-10-17T17:10:09.737Z,21.13
2022-10-17T17:12:37.365Z,22.45
2022-10-17T17:15:05.116Z,22.55
2022-10-17T17:17:48.719Z,19.17
2022-10-17T17:20:18.659Z,20.80
2022-10-17T17:22:45.916Z,21.13
2022-10-17T17:25:13.082Z,18.58
2022-10-17T17:27:40.582Z,24.20
2022-10-17T17:30:08.371Z,18.63
2022-10-17T17:32:35.678Z,19.58
2022-10-17T17:35:02.961Z,23.98
2022-10-17T17:37:30.294Z,29.60
2022-10-17T17:39:57.717Z,20.63
2022-10-17T17:42:24.913Z,23.65
2022-10-17T17:44:52.484Z,23.23
2022-10-17T17:47:19.838Z,21.23
2022-10-17T17:49:47.140Z,20.88
2022-10-17T17:52:14.605Z,23.17
2022-10-17T17:54:41.843Z,21.92
2022-10-17T17:57:09.145Z,20.83
2022-10-17T17:59:37.965Z,23.70
2022-10-17T18:02:07.055Z,21.60
2022-10-17T18:04:34.482Z,25.60
2022-10-17T18:07:01.936Z,22.23
2022-10-17T18:09:29.144Z,25.02
2022-10-17T18:11:56.267Z,22.08
2022-10-17T18:14:24.263Z,24.73
2022-10-17T18:16:51.437Z,24.90
2022-10-17T18:19:18.761Z,24.55
2022-10-17T18:21:46.173Z,24.10
2022-10-17T18:24:13.413Z,29.63
2022-10-17T18:26:40.613Z,27.73
2022-10-17T18:29:07.788Z,24.58
2022-10-17T18:31:37.555Z,27.35
2022-10-17T18:34:05.893Z,26.73
2022-10-17T18:36:34.845Z,26.27
2022-10-17T18:39:03.073Z,25.08
2022-10-17T18:41:31.317Z,22.80
2022-10-17T18:43:58.622Z,23.90
2022-10-17T18:46:32.662Z,26.88
2022-10-17T18:48:59.900Z,21.38
2022-10-17T18:51:27.865Z,25.92
2022-10-17T18:53:58.873Z,24.27
2022-10-17T18:56:26.725Z,24.48
2022-10-17T18:58:54.196Z,24.98
2022-10-17T19:01:24.563Z,24.35
2022-10-17T19:03:54.075Z,24.75
2022-10-17T19:06:24.347Z,23.25
2022-10-17T19:08:51.445Z,26.27
2022-10-17T19:11:24.657Z,23.50
2022-10-17T19:13:53.048Z,20.77
2022-10-17T19:16:31.926Z,25.08
2022-10-17T19:19:02.324Z,24.13
2022-10-17T19:24:00.059Z,24.30
2022-10-17T19:26:29.035Z,23.75
2022-10-17T19:28:56.906Z,24.67
2022-10-17T19:31:27.074Z,23.98
2022-10-17T19:33:57.015Z,21.20
2022-10-17T19:36:30.463Z,26.17
2022-10-17T19:39:06.134Z,24.35
2022-10-17T19:41:34.127Z,23.80
2022-10-17T19:44:01.507Z,21.85
2022-10-17T19:46:30.198Z,22.27
2022-10-17T19:48:57.615Z,26.05
2022-10-17T19:51:26.005Z,23.35
2022-10-17T19:53:55.244Z,23.63
2022-10-17T19:56:24.491Z,25.48
2022-10-17T19:58:52.612Z,24.70
2022-10-17T20:01:25.870Z,28.20
2022-10-17T20:03:54.104Z,28.95
2022-10-17T20:06:22.258Z,23.35
2022-10-17T20:08:50.202Z,31.45
2022-10-17T20:11:23.666Z,23.35
2022-10-17T20:13:51.753Z,29.02
2022-10-17T20:16:22.257Z,29.70
2022-10-17T20:18:51.422Z,25.20
2022-10-17T20:21:25.223Z,25.35
2022-10-17T20:23:52.418Z,28.15
2022-10-17T20:26:33.528Z,25.33
2022-10-17T20:29:09.053Z,27.33
2022-10-17T20:31:36.717Z,29.30
2022-10-17T20:34:04.425Z,26.10
2022-10-17T20:36:32.644Z,29.25
2022-10-17T20:39:00.087Z,33.25
2022-10-17T20:41:27.386Z,27.95
2022-10-17T20:43:55.964Z,30.58
2022-10-17T20:46:36.243Z,29.77
2022-10-17T20:49:06.384Z,29.80
2022-10-17T20:51:34.944Z,31.48
2022-10-17T20:54:03.173Z,31.40
2022-10-17T20:56:32.291Z,27.65
2022-10-17T20:59:06.332Z,32.80
2022-10-17T21:01:35.869Z,31.75
2022-10-17T21:04:27.075Z,30.02
2022-10-17T21:06:52.457Z,30.85
2022-10-17T21:09:20.777Z,31.65
2022-10-17T21:11:51.432Z,28.73
2022-10-17T21:14:19.203Z,32.28
2022-10-17T21:16:46.485Z,28.50
2022-10-17T21:19:14.797Z,30.67
2022-10-17T21:21:44.604Z,30.08
2022-10-17T21:24:14.538Z,32.13
2022-10-17T21:26:43.002Z,30.23
2022-10-17T21:29:10.985Z,31.83
2022-10-17T21:31:40.793Z,28.13
2022-10-17T21:34:13.144Z,31.50
2022-10-17T21:36:40.374Z,28.40
2022-10-17T21:41:35.205Z,29.70
2022-10-17T21:44:05.537Z,29.20
2022-10-17T21:49:01.312Z,28.92
2022-10-17T21:51:29.001Z,33.22
2022-10-17T21:53:57.426Z,30.58
2022-10-17T21:56:30.919Z,28.65
2022-10-17T21:58:59.113Z,32.65
2022-10-17T22:01:32.006Z,29.55
2022-10-17T22:04:01.518Z,30.73
2022-10-17T22:06:39.840Z,27.77
2022-10-17T22:09:13.131Z,29.95
2022-10-17T22:11:41.796Z,29.42
2022-10-17T22:14:13.125Z,30.20
2022-10-17T22:16:41.291Z,32.70
2022-10-17T22:19:09.466Z,29.58
2022-10-17T22:21:37.823Z,30.95
2022-10-17T22:24:08.172Z,31.67
2022-10-17T22:29:04.744Z,30.00
2022-10-17T22:31:31.907Z,33.10
2022-10-17T22:33:59.060Z,34.47
2022-10-17T22:36:26.567Z,30.75
2022-10-17T22:38:53.749Z,31.20
2022-10-17T22:41:21.236Z,32.72
2022-10-17T22:43:48.474Z,30.40
2022-10-17T22:46:17.325Z,33.15
2022-10-17T22:48:44.812Z,33.25
2022-10-17T22:51:12.290Z,28.33
2022-10-17T22:53:39.942Z,33.88
2022-10-17T22:56:12.336Z,31.48
2022-10-17T22:58:39.916Z,32.33
2022-10-17T23:01:08.967Z,29.55
2022-10-17T23:03:36.536Z,31.70
2022-10-17T23:06:03.877Z,30.02
2022-10-17T23:08:31.582Z,30.98
2022-10-17T23:10:58.971Z,31.30
2022-10-17T23:13:26.358Z,29.38
2022-10-17T23:15:55.573Z,31.42
2022-10-17T23:18:23.802Z,35.97
2022-10-17T23:20:51.652Z,34.08
2022-10-17T23:23:19.748Z,33.40
2022-10-17T23:25:47.393Z,31.13
2022-10-17T23:28:14.504Z,34.03
2022-10-17T23:30:42.053Z,34.53
2022-10-17T23:33:12.167Z,32.70
2022-10-17T23:35:40.055Z,35.78
2022-10-17T23:38:07.323Z,32.42
2022-10-17T23:40:35.587Z,32.17
2022-10-17T23:43:03.664Z,35.85
2022-10-17T23:45:36.044Z,32.65
2022-10-17T23:48:05.573Z,35.28
2022-10-17T23:50:32.709Z,37.42
2022-10-17T23:52:59.906Z,34.92
2022-10-17T23:55:27.232Z,33.05
2022-10-17T23:57:54.576Z,38.80
